createdAt,value
2019-06-27T00:01:45.681Z,22.90
2019-06-27T00:06:46.777Z,22.80
2019-06-27T00:11:47.873Z,22.80
2019-06-27T00:16:51.220Z,22.70
2019-06-27T00:21:52.436Z,22.60
2019-06-27T00:26:57.466Z,22.40
2019-06-27T00:31:56.660Z,22.40
2019-06-27T00:36:57.780Z,22.40
2019-06-27T00:41:58.904Z,22.50
2019-06-27T00:47:00.001Z,22.60
2019-06-27T00:52:01.296Z,22.60
2019-06-27T00:57:13.645Z,22.40
2019-06-27T01:02:06.483Z,22.30
2019-06-27T01:07:07.576Z,22.20
2019-06-27T01:12:08.789Z,22.10
2019-06-27T01:17:09.881Z,22.10
2019-06-27T01:22:11.104Z,22.00
2019-06-27T01:27:12.186Z,22.10
2019-06-27T01:32:13.314Z,22.20
2019-06-27T01:37:14.615Z,22.20
2019-06-27T01:42:15.829Z,22.20
2019-06-27T01:47:16.951Z,22.10
2019-06-27T01:52:18.132Z,21.90
2019-06-27T01:57:19.229Z,22.00
2019-06-27T02:02:20.332Z,22.10
2019-06-27T02:07:21.433Z,22.10
2019-06-27T02:12:22.533Z,22.20
2019-06-27T02:17:23.624Z,22.20
2019-06-27T02:22:24.728Z,22.10
2019-06-27T02:27:26.655Z,22.00
2019-06-27T02:32:27.781Z,21.90
2019-06-27T02:37:28.868Z,21.90
2019-06-27T02:42:29.990Z,21.90
2019-06-27T02:47:32.699Z,21.80
2019-06-27T02:52:33.804Z,21.80
2019-06-27T02:57:34.903Z,21.60
2019-06-27T03:02:36.296Z,21.40
2019-06-27T03:07:37.409Z,21.30
2019-06-27T03:12:38.608Z,21.20
2019-06-27T03:17:39.802Z,21.10
2019-06-27T03:22:40.993Z,21.00
2019-06-27T03:27:42.085Z,21.10
2019-06-27T03:32:43.214Z,21.10
2019-06-27T03:37:44.624Z,21.20
2019-06-27T03:42:48.885Z,21.20
2019-06-27T03:47:51.461Z,21.10
2019-06-27T03:52:52.558Z,21.20
2019-06-27T03:57:53.653Z,21.20
2019-06-27T04:02:54.857Z,21.30
2019-06-27T04:07:59.334Z,21.30
2019-06-27T04:13:00.437Z,24.60
2019-06-27T04:18:01.626Z,21.40
2019-06-27T04:23:03.033Z,21.50
2019-06-27T04:28:04.348Z,21.70
2019-06-27T04:33:05.551Z,21.80
2019-06-27T04:38:06.673Z,21.90
2019-06-27T04:43:09.285Z,22.00
2019-06-27T04:48:10.465Z,22.10
2019-06-27T04:53:11.569Z,22.30
2019-06-27T04:58:12.709Z,22.40
2019-06-27T05:03:13.848Z,22.60
2019-06-27T05:08:15.088Z,22.70
2019-06-27T05:13:16.424Z,22.90
2019-06-27T05:18:17.634Z,23.10
2019-06-27T05:23:18.826Z,23.20
2019-06-27T05:28:19.926Z,23.20
2019-06-27T05:33:21.145Z,23.20
2019-06-27T05:38:23.723Z,23.40
2019-06-27T05:43:24.844Z,23.50
2019-06-27T05:48:25.939Z,23.60
2019-06-27T05:53:27.041Z,23.80
2019-06-27T05:58:28.129Z,24.00
2019-06-27T06:03:29.266Z,24.20
2019-06-27T06:08:30.360Z,24.30
2019-06-27T06:13:31.452Z,24.40
2019-06-27T06:18:32.555Z,24.60
2019-06-27T06:23:33.659Z,24.70
2019-06-27T06:28:35.551Z,24.80
2019-06-27T06:33:36.676Z,25.00
2019-06-27T06:38:37.788Z,25.20
2019-06-27T06:43:38.930Z,25.30
2019-06-27T06:48:40.209Z,25.60
2019-06-27T06:53:41.340Z,25.80
2019-06-27T06:58:42.553Z,25.90
2019-06-27T07:03:43.650Z,26.20
2019-06-27T07:08:44.765Z,26.30
2019-06-27T07:13:48.666Z,26.50
2019-06-27T07:18:49.779Z,26.60
2019-06-27T07:23:50.924Z,26.80
2019-06-27T07:28:52.012Z,26.80
2019-06-27T07:33:53.144Z,27.10
2019-06-27T07:38:54.244Z,27.50
2019-06-27T07:43:55.355Z,27.60
2019-06-27T07:48:56.449Z,27.70
2019-06-27T07:53:58.849Z,28.10
2019-06-27T07:58:59.956Z,28.10
2019-06-27T08:04:01.118Z,28.10
2019-06-27T08:09:02.938Z,28.20
2019-06-27T08:14:04.033Z,28.70
2019-06-27T08:19:05.128Z,28.60
2019-06-27T08:24:06.242Z,28.50
2019-06-27T08:29:07.341Z,29.00
2019-06-27T08:34:08.564Z,29.30
2019-06-27T08:39:09.684Z,29.70
2019-06-27T08:44:10.801Z,29.90
2019-06-27T08:49:11.894Z,30.10
2019-06-27T08:54:12.990Z,31.20
2019-06-27T08:59:16.900Z,31.40
2019-06-27T09:04:18.026Z,31.30
2019-06-27T09:09:19.219Z,31.70
2019-06-27T09:14:20.395Z,31.50
2019-06-27T09:19:21.484Z,31.70
2019-06-27T09:24:22.657Z,32.20
2019-06-27T09:29:23.913Z,32.30
2019-06-27T09:34:25.087Z,32.30
2019-06-27T09:39:27.177Z,32.00
2019-06-27T09:44:28.672Z,32.10
2019-06-27T09:49:29.780Z,31.90
2019-06-27T09:54:30.873Z,32.80
2019-06-27T09:59:31.987Z,33.30
2019-06-27T10:04:33.173Z,33.80
2019-06-27T10:09:34.297Z,34.10
2019-06-27T10:14:35.511Z,34.40
2019-06-27T10:19:36.794Z,34.90
2019-06-27T10:24:37.970Z,35.30
2019-06-27T10:29:39.561Z,35.20
2019-06-27T10:34:40.677Z,34.70
2019-06-27T10:39:41.795Z,35.70
2019-06-27T10:44:43.010Z,35.60
2019-06-27T10:49:44.211Z,35.60
2019-06-27T10:54:45.322Z,35.90
2019-06-27T10:59:46.597Z,35.40
2019-06-27T11:04:47.796Z,35.90
2019-06-27T11:09:50.301Z,36.50
2019-06-27T11:14:58.982Z,36.70
2019-06-27T11:19:55.596Z,37.00
2019-06-27T11:24:56.718Z,36.60
2019-06-27T11:29:59.177Z,37.10
2019-06-27T11:35:00.531Z,37.40
2019-06-27T11:40:02.261Z,38.20
2019-06-27T11:45:04.768Z,39.50
2019-06-27T11:50:07.245Z,39.70
2019-06-27T11:55:08.823Z,40.20
2019-06-27T12:00:10.218Z,40.10
2019-06-27T12:05:11.422Z,41.00
2019-06-27T12:10:15.142Z,41.90
2019-06-27T12:15:18.293Z,41.00
2019-06-27T12:20:19.619Z,41.20
2019-06-27T12:25:20.728Z,40.40
2019-06-27T12:30:21.858Z,40.70
2019-06-27T12:35:23.064Z,41.40
2019-06-27T12:40:24.459Z,41.90
2019-06-27T12:45:26.843Z,41.50
2019-06-27T12:50:27.975Z,41.60
2019-06-27T12:55:29.520Z,42.70
2019-06-27T13:00:30.719Z,43.00
2019-06-27T13:05:31.855Z,43.10
2019-06-27T13:10:35.808Z,43.30
2019-06-27T13:15:37.408Z,42.70
2019-06-27T13:20:38.563Z,42.80
2019-06-27T13:25:39.659Z,45.00
2019-06-27T13:30:40.761Z,44.70
2019-06-27T13:35:41.867Z,43.90
2019-06-27T13:40:43.079Z,43.90
2019-06-27T13:45:46.625Z,43.20
2019-06-27T13:50:47.769Z,44.10
2019-06-27T13:55:48.872Z,44.50
2019-06-27T14:00:50.081Z,44.40
2019-06-27T14:05:51.188Z,44.00
2019-06-27T14:10:52.297Z,44.20
2019-06-27T14:15:53.403Z,44.50
2019-06-27T14:20:57.595Z,44.30
2019-06-27T14:25:58.701Z,44.40
2019-06-27T14:31:02.617Z,43.70
2019-06-27T14:36:03.829Z,45.10
2019-06-27T14:41:04.933Z,44.90
2019-06-27T14:46:06.153Z,44.70
2019-06-27T14:51:07.256Z,44.00
2019-06-27T14:56:08.363Z,43.30
2019-06-27T15:01:10.080Z,44.10
2019-06-27T15:06:12.962Z,43.90
2019-06-27T15:11:14.060Z,43.90
2019-06-27T15:16:15.165Z,43.70
2019-06-27T15:21:16.364Z,42.90
2019-06-27T15:26:17.480Z,43.40
2019-06-27T15:31:22.187Z,43.80
2019-06-27T15:36:23.218Z,43.20
2019-06-27T15:41:24.318Z,43.00
2019-06-27T15:46:25.539Z,43.40
2019-06-27T15:51:26.651Z,43.30
2019-06-27T15:56:27.756Z,43.20
2019-06-27T16:01:28.848Z,42.90
2019-06-27T16:06:30.086Z,43.00
2019-06-27T16:11:31.247Z,42.60
2019-06-27T16:16:32.943Z,41.20
2019-06-27T16:21:34.180Z,41.80
2019-06-27T16:26:35.375Z,42.50
2019-06-27T16:31:36.491Z,42.10
2019-06-27T16:36:37.610Z,41.90
2019-06-27T16:41:38.740Z,41.90
2019-06-27T16:46:39.836Z,40.60
2019-06-27T16:51:40.933Z,39.60
2019-06-27T16:56:42.055Z,40.40
2019-06-27T17:01:43.138Z,39.90
2019-06-27T17:06:44.239Z,39.80
2019-06-27T17:11:45.435Z,39.60
2019-06-27T17:16:46.731Z,39.10
2019-06-27T17:21:47.833Z,39.00
2019-06-27T17:26:49.625Z,38.00
2019-06-27T17:31:50.727Z,37.00
2019-06-27T17:36:57.426Z,35.40
2019-06-27T17:41:55.022Z,34.30
2019-06-27T17:46:56.340Z,33.50
2019-06-27T17:51:57.541Z,32.80
2019-06-27T17:56:58.659Z,32.60
2019-06-27T18:01:59.876Z,32.00
2019-06-27T18:07:13.385Z,31.30
2019-06-27T18:12:04.088Z,31.10
2019-06-27T18:17:05.279Z,30.70
2019-06-27T18:22:07.969Z,30.20
2019-06-27T18:27:09.081Z,29.80
2019-06-27T18:32:10.191Z,29.20
2019-06-27T18:37:11.391Z,28.90
2019-06-27T18:42:12.521Z,28.50
2019-06-27T18:47:13.711Z,28.20
2019-06-27T18:52:14.954Z,27.90
2019-06-27T18:57:16.050Z,27.60
2019-06-27T19:02:17.292Z,27.20
2019-06-27T19:07:18.403Z,27.00
2019-06-27T19:12:19.607Z,26.80
2019-06-27T19:17:20.793Z,28.70
2019-06-27T19:22:40.266Z,26.10
2019-06-27T19:27:41.385Z,25.80
2019-06-27T19:32:42.514Z,25.40
2019-06-27T19:37:43.641Z,25.10
2019-06-27T19:42:44.764Z,25.30
2019-06-27T19:47:45.888Z,24.70
2019-06-27T19:52:47.108Z,24.50
2019-06-27T19:57:48.220Z,24.20
2019-06-27T20:02:49.529Z,24.00
2019-06-27T20:07:50.646Z,23.70
2019-06-27T20:12:53.337Z,23.60
2019-06-27T20:17:54.451Z,23.60
2019-06-27T20:22:55.570Z,23.70
2019-06-27T20:27:56.693Z,23.70
2019-06-27T20:32:57.822Z,23.60
2019-06-27T20:37:59.010Z,23.60
2019-06-27T20:43:00.371Z,23.40
2019-06-27T20:48:01.542Z,23.10
2019-06-27T20:53:02.721Z,22.80
2019-06-27T20:58:03.914Z,22.50
2019-06-27T21:03:05.046Z,22.40
2019-06-27T21:08:06.228Z,22.10
2019-06-27T21:13:07.353Z,21.80
2019-06-27T21:18:08.443Z,21.50
2019-06-27T21:23:09.568Z,21.20
2019-06-27T21:28:10.864Z,20.80
2019-06-27T21:33:12.063Z,20.70
2019-06-27T21:38:13.182Z,20.40
2019-06-27T21:43:15.619Z,20.10
2019-06-27T21:48:16.735Z,19.90
2019-06-27T21:53:17.940Z,19.70
2019-06-27T21:58:19.045Z,19.50
2019-06-27T22:03:20.240Z,19.40
2019-06-27T22:08:21.341Z,19.20
2019-06-27T22:13:22.446Z,19.00
2019-06-27T22:18:23.537Z,18.90
2019-06-27T22:23:24.635Z,18.70
2019-06-27T22:28:25.749Z,18.50
2019-06-27T22:33:26.845Z,18.40
2019-06-27T22:38:46.471Z,18.20
2019-06-27T22:44:06.248Z,18.20
2019-06-27T22:49:07.768Z,18.10
2019-06-27T22:54:10.771Z,18.00
2019-06-27T22:59:11.879Z,17.90
2019-06-27T23:04:12.972Z,17.60
2019-06-27T23:09:14.158Z,17.40
2019-06-27T23:14:15.259Z,17.30
2019-06-27T23:19:16.496Z,17.20
2019-06-27T23:24:17.684Z,17.00
2019-06-27T23:29:18.788Z,16.70
2019-06-27T23:34:19.925Z,16.70
2019-06-27T23:39:21.021Z,16.70
2019-06-27T23:44:25.153Z,16.50
2019-06-27T23:49:26.267Z,16.40
2019-06-27T23:54:30.172Z,16.40
2019-06-27T23:59:31.447Z,16.30
